Time;durP1;ratioP1;P1;durP2;ratioP2;P2;SDS_P1;SDS_P2;PMS_P1;PMS_P2;Temp;Humidity;BMP_temperature;BMP_pressure;BME280_temperature;BME280_humidity;BME280_pressure;Samples;Min_cycle;Max_cycle;Signal;HPM_P1;HPM_P2
2023/11/26 00:01:45;;;;;;;0.88;0.70;;;3.90;99.90;;;;;;4968617;28;20093;-62
2023/11/26 00:04:11;;;;;;;1.63;0.85;;;3.90;99.90;;;;;;4967988;28;20066;-62
2023/11/26 00:06:45;;;;;;;4.60;0.93;;;4.00;99.90;;;;;;4967956;28;20031;-62
2023/11/26 00:09:11;;;;;;;3.10;0.80;;;4.00;99.90;;;;;;4968573;28;20033;-62
2023/11/26 00:11:37;;;;;;;1.63;0.70;;;3.90;99.90;;;;;;4964658;28;20122;-62
2023/11/26 00:14:04;;;;;;;0.77;0.65;;;3.90;99.90;;;;;;4968175;28;20082;-61
2023/11/26 00:16:37;;;;;;;2.83;0.70;;;3.90;99.90;;;;;;4967633;28;20062;-61
2023/11/26 00:19:03;;;;;;;2.47;0.70;;;3.90;99.90;;;;;;4968096;28;20027;-61
2023/11/26 00:21:30;;;;;;;1.17;0.70;;;3.90;99.90;;;;;;4968014;28;20031;-61
2023/11/26 00:23:56;;;;;;;1.20;0.77;;;3.90;99.90;;;;;;4968197;28;20573;-62
2023/11/26 00:26:22;;;;;;;0.85;0.70;;;3.90;99.90;;;;;;4968158;28;20031;-61
2023/11/26 00:28:57;;;;;;;0.50;0.50;;;3.90;99.90;;;;;;4965633;28;20073;-61
2023/11/26 00:31:24;;;;;;;1.55;1.20;;;3.90;99.90;;;;;;4947304;28;20088;-61
2023/11/26 00:33:50;;;;;;;1.33;0.60;;;3.90;99.90;;;;;;4967740;28;20029;-62
2023/11/26 00:36:17;;;;;;;0.50;0.50;;;3.90;99.90;;;;;;4969650;28;20038;-61
2023/11/26 00:38:44;;;;;;;2.42;0.73;;;3.90;99.90;;;;;;4959547;28;20053;-62
2023/11/26 00:41:10;;;;;;;1.77;0.60;;;3.90;99.90;;;;;;4966527;28;20039;-62
2023/11/26 00:43:36;;;;;;;0.70;0.60;;;3.90;99.90;;;;;;4967738;28;20030;-61
2023/11/26 00:46:02;;;;;;;1.52;0.75;;;3.90;99.90;;;;;;4967733;28;20050;-62
2023/11/26 00:48:28;;;;;;;1.23;0.55;;;3.90;99.90;;;;;;4966193;28;20510;-62
2023/11/26 00:50:54;;;;;;;0.70;0.70;;;3.90;99.90;;;;;;4966293;28;20121;-62
2023/11/26 00:53:21;;;;;;;1.20;1.00;;;3.90;99.90;;;;;;4944812;28;20031;-61
2023/11/26 00:55:47;;;;;;;0.68;0.65;;;3.80;99.90;;;;;;4958956;28;20038;-62
2023/11/26 00:58:14;;;;;;;0.85;0.63;;;3.90;99.90;;;;;;4967630;28;20110;-61
2023/11/26 01:00:41;;;;;;;0.82;0.60;;;3.80;99.90;;;;;;4967340;28;20046;-62
2023/11/26 01:03:07;;;;;;;5.07;0.70;;;3.80;99.90;;;;;;4967834;28;20039;-62
2023/11/26 01:05:33;;;;;;;3.50;0.52;;;3.80;99.90;;;;;;4956236;28;20047;-62
2023/11/26 01:08:02;;;;;;;2.88;0.68;;;3.80;99.90;;;;;;4966279;28;20699;-62
2023/11/26 01:10:29;;;;;;;4.18;1.02;;;3.70;99.90;;;;;;4954733;28;20383;-62
2023/11/26 01:12:54;;;;;;;0.47;0.45;;;3.70;99.90;;;;;;4967231;28;20057;-62
2023/11/26 01:15:21;;;;;;;1.13;0.57;;;3.70;99.90;;;;;;4967370;28;20056;-61
2023/11/26 01:17:50;;;;;;;1.45;0.65;;;3.70;99.90;;;;;;4949661;28;20047;-62
2023/11/26 01:20:16;;;;;;;1.98;0.50;;;3.70;99.90;;;;;;4966573;28;20038;-62
2023/11/26 01:22:42;;;;;;;0.85;0.60;;;3.70;99.90;;;;;;4967054;28;20030;-62
2023/11/26 01:25:08;;;;;;;1.38;1.00;;;3.60;99.90;;;;;;4967333;28;20034;-62
2023/11/26 01:27:34;;;;;;;0.65;0.65;;;3.60;99.90;;;;;;4967100;28;20026;-62
2023/11/26 01:30:00;;;;;;;0.88;0.70;;;3.60;99.90;;;;;;4942347;28;20094;-62
2023/11/26 01:32:27;;;;;;;1.02;0.60;;;3.60;99.90;;;;;;4967059;28;20034;-62
2023/11/26 01:34:53;;;;;;;1.40;0.70;;;3.60;99.90;;;;;;4956942;28;20116;-62
2023/11/26 01:37:19;;;;;;;1.27;0.75;;;3.60;99.90;;;;;;4966827;28;20128;-62
2023/11/26 01:39:45;;;;;;;2.88;0.60;;;3.60;99.90;;;;;;4966278;28;20034;-62
2023/11/26 01:42:11;;;;;;;2.22;0.70;;;3.50;99.90;;;;;;4966394;28;20023;-62
2023/11/26 01:44:37;;;;;;;1.55;0.50;;;3.50;99.90;;;;;;4967147;28;20824;-62
2023/11/26 01:47:05;;;;;;;1.40;0.52;;;3.40;99.90;;;;;;4966638;28;20049;-62
2023/11/26 01:49:32;;;;;;;4.60;1.10;;;3.40;99.90;;;;;;4958102;28;20062;-62
2023/11/26 01:52:04;;;;;;;1.95;0.65;;;3.40;99.90;;;;;;4965201;28;20062;-62
2023/11/26 01:54:35;;;;;;;0.88;0.60;;;3.40;99.90;;;;;;4962221;28;20048;-62
2023/11/26 01:57:02;;;;;;;1.95;0.70;;;3.40;99.90;;;;;;4965422;28;20073;-62
2023/11/26 01:59:29;;;;;;;2.10;0.68;;;3.40;99.90;;;;;;4943479;28;20076;-62
2023/11/26 02:01:55;;;;;;;1.90;0.90;;;3.30;99.90;;;;;;4957899;28;20105;-62
2023/11/26 02:04:21;;;;;;;1.65;0.68;;;3.30;99.90;;;;;;4966624;28;20395;-62
2023/11/26 02:06:55;;;;;;;0.60;0.50;;;3.30;99.90;;;;;;4965119;28;20181;-62
2023/11/26 02:09:22;;;;;;;2.25;0.50;;;3.30;99.90;;;;;;4935453;28;20030;-61
2023/11/26 02:11:48;;;;;;;2.17;1.13;;;3.30;99.90;;;;;;4964212;28;20110;-62
2023/11/26 02:14:15;;;;;;;0.85;0.60;;;3.30;99.90;;;;;;4966017;28;20398;-62
2023/11/26 02:16:46;;;;;;;1.73;0.60;;;3.30;99.90;;;;;;4965803;28;20411;-62
2023/11/26 02:19:32;;;;;;;1.10;0.70;;;3.30;99.90;;;;;;4943328;28;20653;-62
2023/11/26 02:22:00;;;;;;;0.70;0.53;;;3.40;99.90;;;;;;4946682;28;20058;-62
2023/11/26 02:24:30;;;;;;;2.22;0.75;;;3.40;99.90;;;;;;4948771;28;20042;-62
2023/11/26 02:26:57;;;;;;;0.70;0.60;;;3.40;99.90;;;;;;4947870;28;20035;-62
2023/11/26 02:29:23;;;;;;;0.85;0.52;;;3.40;99.90;;;;;;4948597;28;20399;-62
2023/11/26 02:31:50;;;;;;;0.73;0.45;;;3.40;99.90;;;;;;4966061;28;20553;-62
2023/11/26 02:34:16;;;;;;;0.50;0.50;;;3.30;99.90;;;;;;4964800;28;20039;-62
2023/11/26 02:36:42;;;;;;;0.75;0.70;;;3.30;99.90;;;;;;4954695;28;20046;-62
2023/11/26 02:39:09;;;;;;;2.83;0.80;;;3.30;99.90;;;;;;4943217;28;20035;-62
2023/11/26 02:41:35;;;;;;;1.08;0.70;;;3.30;99.90;;;;;;4964591;28;20031;-62
2023/11/26 02:44:02;;;;;;;1.52;0.82;;;3.30;99.90;;;;;;4966093;28;20041;-61
2023/11/26 02:46:28;;;;;;;1.35;0.57;;;3.30;99.90;;;;;;4955562;28;20579;-62
2023/11/26 02:48:54;;;;;;;1.27;0.80;;;3.30;99.90;;;;;;4966158;28;20031;-62
2023/11/26 02:51:20;;;;;;;2.55;0.50;;;3.30;99.90;;;;;;4941062;28;20089;-62
2023/11/26 02:53:46;;;;;;;1.67;0.60;;;3.30;99.90;;;;;;4965788;28;20038;-62
2023/11/26 02:56:13;;;;;;;1.20;0.50;;;3.30;99.90;;;;;;4965502;28;20034;-61
2023/11/26 02:58:42;;;;;;;0.90;0.70;;;3.30;99.90;;;;;;4965637;28;20556;-62
2023/11/26 03:01:15;;;;;;;0.73;0.70;;;3.30;99.90;;;;;;4963840;28;20030;-62
2023/11/26 03:03:41;;;;;;;2.05;0.70;;;3.40;99.90;;;;;;4946249;28;20136;-62
2023/11/26 03:06:08;;;;;;;0.47;0.47;;;3.40;99.90;;;;;;4965778;28;20133;-62
2023/11/26 03:08:37;;;;;;;0.68;0.63;;;3.40;99.90;;;;;;4965509;28;20045;-62
2023/11/26 03:13:49;;;;;;;0.65;0.60;;;3.40;99.90;;;;;;4965834;28;20035;-62
2023/11/26 03:16:16;;;;;;;0.47;0.47;;;3.40;99.90;;;;;;4964640;28;20158;-62
2023/11/26 03:18:42;;;;;;;0.60;0.60;;;3.40;99.90;;;;;;4945407;28;20129;-62
2023/11/26 03:21:11;;;;;;;1.02;0.60;;;3.40;99.90;;;;;;4965050;28;20074;-62
2023/11/26 03:23:36;;;;;;;0.45;0.45;;;3.40;99.90;;;;;;4948257;28;20109;-62
2023/11/26 03:26:03;;;;;;;2.92;0.60;;;3.40;99.90;;;;;;4965352;28;20137;-62
2023/11/26 03:28:29;;;;;;;3.03;0.65;;;3.40;99.90;;;;;;4965792;28;20039;-62
2023/11/26 03:30:56;;;;;;;0.60;0.60;;;3.40;99.90;;;;;;4963921;28;20038;-62
2023/11/26 03:33:22;;;;;;;0.50;0.50;;;3.40;99.90;;;;;;4963995;28;20033;-62
2023/11/26 03:35:50;;;;;;;3.05;0.68;;;3.40;99.90;;;;;;4965773;28;20035;-62
2023/11/26 03:38:17;;;;;;;0.40;0.40;;;3.40;99.90;;;;;;4947908;28;20038;-62
2023/11/26 03:40:44;;;;;;;0.70;0.55;;;3.30;99.90;;;;;;4965548;28;20498;-62
2023/11/26 03:43:11;;;;;;;0.75;0.50;;;3.30;99.90;;;;;;4945114;28;20443;-62
2023/11/26 03:45:38;;;;;;;1.00;0.70;;;3.20;99.90;;;;;;4963856;28;20027;-62
2023/11/26 03:48:04;;;;;;;0.93;0.60;;;3.20;99.90;;;;;;4965009;28;20031;-62
2023/11/26 03:50:30;;;;;;;1.42;0.75;;;3.10;99.90;;;;;;4965097;28;20034;-62
2023/11/26 03:52:56;;;;;;;2.95;0.82;;;3.10;99.90;;;;;;4965144;28;20042;-62
2023/11/26 03:55:22;;;;;;;1.80;0.80;;;3.10;99.90;;;;;;4949853;28;20129;-62
2023/11/26 03:57:49;;;;;;;0.70;0.57;;;3.10;99.90;;;;;;4965088;28;20034;-62
2023/11/26 04:00:17;;;;;;;1.23;0.65;;;3.00;99.90;;;;;;4965075;28;20051;-62
2023/11/26 04:02:43;;;;;;;0.95;0.65;;;3.10;99.90;;;;;;4966056;28;20478;-62
2023/11/26 04:05:11;;;;;;;2.15;0.95;;;3.20;99.90;;;;;;4967107;28;20022;-62
2023/11/26 04:07:37;;;;;;;0.93;0.80;;;3.20;99.90;;;;;;4957189;28;20030;-62
2023/11/26 04:10:08;;;;;;;2.40;1.00;;;3.20;99.90;;;;;;4967424;28;20126;-62
2023/11/26 04:12:37;;;;;;;1.23;0.77;;;3.20;99.90;;;;;;4968868;28;20041;-62
2023/11/26 04:15:06;;;;;;;1.25;0.95;;;3.20;99.90;;;;;;4950884;28;20567;-62
2023/11/26 04:17:33;;;;;;;1.23;0.95;;;3.20;99.90;;;;;;4957193;28;21123;-62
2023/11/26 04:20:00;;;;;;;0.73;0.70;;;3.10;99.90;;;;;;4968399;28;20040;-62
2023/11/26 04:22:27;;;;;;;1.02;0.70;;;3.10;99.90;;;;;;4966038;28;20209;-62
2023/11/26 04:24:53;;;;;;;1.63;1.02;;;3.10;99.90;;;;;;4968552;28;20631;-62
2023/11/26 04:27:21;;;;;;;1.00;0.90;;;3.20;99.90;;;;;;4968832;28;20058;-62
2023/11/26 04:29:47;;;;;;;1.30;1.02;;;3.20;99.90;;;;;;4968300;28;20042;-62
2023/11/26 04:32:13;;;;;;;4.07;0.90;;;3.20;99.90;;;;;;4968167;28;20073;-62
2023/11/26 04:34:40;;;;;;;3.40;1.02;;;3.10;99.90;;;;;;4968428;28;20054;-62
2023/11/26 04:37:10;;;;;;;1.80;1.30;;;3.10;99.90;;;;;;4967927;28;20142;-62
2023/11/26 04:39:36;;;;;;;1.25;1.02;;;3.00;99.90;;;;;;4968055;28;20035;-62
2023/11/26 04:42:02;;;;;;;1.23;0.88;;;3.00;99.90;;;;;;4967739;28;20033;-61
2023/11/26 04:44:29;;;;;;;1.08;0.98;;;3.00;99.90;;;;;;4968166;28;20039;-62
2023/11/26 04:46:54;;;;;;;1.13;0.98;;;3.00;99.90;;;;;;4967752;28;20041;-62
2023/11/26 04:49:20;;;;;;;2.80;0.90;;;3.00;99.90;;;;;;4967899;28;20022;-62
2023/11/26 04:51:47;;;;;;;1.85;1.15;;;3.00;99.90;;;;;;4967879;28;20049;-62
2023/11/26 04:54:13;;;;;;;1.35;1.10;;;2.90;99.90;;;;;;4968129;28;20509;-62
2023/11/26 04:56:40;;;;;;;1.25;1.00;;;2.90;99.90;;;;;;4967628;28;20489;-62
2023/11/26 04:59:09;;;;;;;2.35;1.08;;;3.00;99.90;;;;;;4967427;28;20045;-62
2023/11/26 05:01:43;;;;;;;1.60;0.88;;;2.90;99.90;;;;;;4967520;28;20058;-62
2023/11/26 05:04:13;;;;;;;2.13;1.08;;;2.90;99.90;;;;;;4967654;28;20038;-62
2023/11/26 05:06:39;;;;;;;2.50;1.13;;;2.90;99.90;;;;;;4967299;28;20473;-61
2023/11/26 05:09:11;;;;;;;4.05;1.40;;;2.90;99.90;;;;;;4967603;28;20030;-62
2023/11/26 05:11:43;;;;;;;1.98;1.45;;;2.90;99.90;;;;;;4964857;28;20049;-62
2023/11/26 05:14:10;;;;;;;3.80;1.40;;;2.90;99.90;;;;;;4966611;28;20557;-62
2023/11/26 05:16:37;;;;;;;2.42;1.50;;;3.00;99.90;;;;;;4967274;28;20050;-62
2023/11/26 05:19:03;;;;;;;2.15;1.40;;;3.00;99.90;;;;;;4967739;28;20034;-62
2023/11/26 05:21:29;;;;;;;2.05;1.73;;;3.00;99.90;;;;;;4967367;28;20034;-61
2023/11/26 05:23:55;;;;;;;2.28;1.50;;;3.10;99.90;;;;;;4967051;28;20038;-62
2023/11/26 05:26:21;;;;;;;3.33;1.90;;;3.10;99.90;;;;;;4967082;28;20031;-62
2023/11/26 05:28:47;;;;;;;3.30;1.98;;;3.20;99.90;;;;;;4967193;28;20023;-62
2023/11/26 05:31:14;;;;;;;2.25;1.50;;;3.10;99.90;;;;;;4966755;28;20031;-61
2023/11/26 05:33:40;;;;;;;3.90;2.08;;;3.10;99.90;;;;;;4967066;28;20463;-62
2023/11/26 05:36:07;;;;;;;4.50;1.70;;;3.10;99.90;;;;;;4966840;28;20086;-62
2023/11/26 05:38:33;;;;;;;5.70;2.03;;;3.10;99.90;;;;;;4966862;28;20042;-62
2023/11/26 05:40:59;;;;;;;3.28;2.28;;;3.10;99.90;;;;;;4966746;28;20034;-62
2023/11/26 05:43:29;;;;;;;2.80;1.60;;;3.00;99.90;;;;;;4951287;28;20049;-62
2023/11/26 05:45:56;;;;;;;2.92;1.40;;;3.00;99.90;;;;;;4967004;28;20688;-62
2023/11/26 05:48:21;;;;;;;2.10;1.55;;;3.00;99.90;;;;;;4966890;28;20161;-62
2023/11/26 05:50:47;;;;;;;3.72;1.90;;;3.00;99.90;;;;;;4967057;28;20121;-62
2023/11/26 05:53:13;;;;;;;2.90;1.55;;;3.00;99.90;;;;;;4966725;28;20038;-62
2023/11/26 05:55:39;;;;;;;1.95;1.30;;;2.90;99.90;;;;;;4963243;28;20049;-62
2023/11/26 05:58:05;;;;;;;3.00;1.77;;;2.90;99.90;;;;;;4966625;28;20125;-62
2023/11/26 06:00:31;;;;;;;4.00;1.60;;;2.90;99.90;;;;;;4966842;28;20122;-62
2023/11/26 06:02:56;;;;;;;2.95;1.50;;;2.90;99.90;;;;;;4966362;28;20057;-62
2023/11/26 06:05:22;;;;;;;1.45;1.35;;;2.80;99.90;;;;;;4966504;28;20027;-62
2023/11/26 06:07:48;;;;;;;2.08;1.30;;;2.80;99.90;;;;;;4966166;28;20038;-62
2023/11/26 06:10:15;;;;;;;3.58;1.77;;;2.80;99.90;;;;;;4963302;28;20027;-62
2023/11/26 06:12:41;;;;;;;3.35;1.70;;;2.70;99.90;;;;;;4966576;28;20043;-62
2023/11/26 06:15:11;;;;;;;2.28;1.65;;;2.70;99.90;;;;;;4966314;28;20035;-62
2023/11/26 06:17:37;;;;;;;2.97;1.77;;;2.70;99.90;;;;;;4966160;28;20042;-62
2023/11/26 06:20:03;;;;;;;4.03;1.70;;;2.70;99.90;;;;;;4966111;28;20392;-62
2023/11/26 06:22:29;;;;;;;2.70;2.00;;;2.70;99.90;;;;;;4966427;28;20856;-62
2023/11/26 06:24:55;;;;;;;4.85;2.75;;;2.70;99.90;;;;;;4966296;28;20035;-62
2023/11/26 06:27:21;;;;;;;4.43;2.97;;;2.70;99.90;;;;;;4965948;28;20410;-63
2023/11/26 06:29:47;;;;;;;5.20;3.00;;;2.70;99.90;;;;;;4961856;28;20065;-63
2023/11/26 06:32:12;;;;;;;4.72;3.00;;;2.60;99.90;;;;;;4965977;28;20438;-62
2023/11/26 06:34:38;;;;;;;4.38;2.63;;;2.60;99.90;;;;;;4966177;28;20050;-62
2023/11/26 06:37:05;;;;;;;5.25;2.85;;;2.60;99.90;;;;;;4966071;28;20043;-63
2023/11/26 06:39:31;;;;;;;5.25;2.75;;;2.60;99.90;;;;;;4966268;28;20046;-63
2023/11/26 06:41:57;;;;;;;4.18;2.33;;;2.60;99.90;;;;;;4966107;28;20030;-63
2023/11/26 06:44:23;;;;;;;4.10;2.25;;;2.60;99.90;;;;;;4965900;28;20486;-62
2023/11/26 06:46:52;;;;;;;2.92;1.90;;;2.50;99.90;;;;;;4965654;28;20131;-63
2023/11/26 06:49:18;;;;;;;6.55;2.78;;;2.40;99.90;;;;;;4964811;28;20038;-63
2023/11/26 06:51:44;;;;;;;3.60;2.22;;;2.40;99.90;;;;;;4965314;28;20031;-63
2023/11/26 06:54:10;;;;;;;3.53;2.38;;;2.40;99.90;;;;;;4965824;28;20037;-62
2023/11/26 06:56:36;;;;;;;4.90;2.67;;;2.40;99.90;;;;;;4947577;28;20561;-63
2023/11/26 06:59:02;;;;;;;6.10;2.20;;;2.40;99.90;;;;;;4965664;28;20078;-63
2023/11/26 07:01:28;;;;;;;4.60;2.10;;;2.40;99.90;;;;;;4965369;28;20047;-63
2023/11/26 07:03:54;;;;;;;3.35;2.33;;;2.30;99.90;;;;;;4965398;28;20031;-63
2023/11/26 07:06:20;;;;;;;1.92;1.75;;;2.30;99.90;;;;;;4965588;28;20114;-63
2023/11/26 07:08:46;;;;;;;6.35;2.00;;;2.30;99.90;;;;;;4962480;28;20037;-63
2023/11/26 07:11:17;;;;;;;3.63;1.48;;;2.20;99.90;;;;;;4965204;28;20643;-63
2023/11/26 07:13:43;;;;;;;1.83;1.65;;;2.20;99.90;;;;;;4965258;28;20042;-63
2023/11/26 07:16:09;;;;;;;3.00;1.90;;;2.20;99.90;;;;;;4965440;28;20041;-63
2023/11/26 07:18:35;;;;;;;2.85;1.42;;;2.20;99.90;;;;;;4965793;28;20664;-63
2023/11/26 07:21:01;;;;;;;2.35;1.30;;;2.20;99.90;;;;;;4965551;28;20137;-63
2023/11/26 07:23:26;;;;;;;3.35;1.60;;;2.20;99.90;;;;;;4965475;28;20495;-63
2023/11/26 07:25:52;;;;;;;3.97;2.40;;;2.20;99.90;;;;;;4965590;28;20037;-63
2023/11/26 07:28:18;;;;;;;4.10;2.20;;;2.20;99.90;;;;;;4965455;28;20031;-63
2023/11/26 07:30:45;;;;;;;2.50;1.70;;;2.20;99.90;;;;;;4965762;28;20145;-63
2023/11/26 07:33:11;;;;;;;3.05;2.00;;;2.20;99.90;;;;;;4965443;28;20030;-63
2023/11/26 07:35:40;;;;;;;2.78;1.70;;;2.20;99.90;;;;;;4965326;28;20041;-63
2023/11/26 07:38:08;;;;;;;2.65;1.88;;;2.20;99.90;;;;;;4965801;28;20038;-63
2023/11/26 07:40:34;;;;;;;3.65;2.20;;;2.20;99.90;;;;;;4968633;28;20182;-63
2023/11/26 07:43:00;;;;;;;2.92;1.73;;;2.20;99.90;;;;;;4969054;28;20574;-63
2023/11/26 07:45:27;;;;;;;2.92;1.90;;;2.30;99.90;;;;;;4968827;28;20158;-63
2023/11/26 07:47:53;;;;;;;5.35;1.58;;;2.20;99.90;;;;;;4968911;28;20026;-63
2023/11/26 07:50:20;;;;;;;2.42;1.38;;;2.20;99.90;;;;;;4968836;28;20035;-63
2023/11/26 07:52:46;;;;;;;1.63;1.50;;;2.30;99.90;;;;;;4968941;28;20105;-63
2023/11/26 07:55:12;;;;;;;4.20;1.65;;;2.40;99.90;;;;;;4968837;28;20115;-63
2023/11/26 07:57:40;;;;;;;2.35;1.25;;;2.50;99.90;;;;;;4968383;28;20470;-63
2023/11/26 08:00:09;;;;;;;2.67;1.90;;;2.50;99.90;;;;;;4968793;28;20042;-63
2023/11/26 08:02:41;;;;;;;2.97;1.85;;;2.60;99.90;;;;;;4968999;28;20034;-62
2023/11/26 08:05:08;;;;;;;3.60;1.20;;;2.60;99.90;;;;;;4968860;28;20035;-63
2023/11/26 08:07:36;;;;;;;2.83;1.52;;;2.60;99.90;;;;;;4950974;28;20027;-63
2023/11/26 08:10:10;;;;;;;4.40;2.00;;;2.70;99.90;;;;;;4968707;28;20034;-62
2023/11/26 08:12:38;;;;;;;6.75;2.60;;;2.70;99.90;;;;;;4968787;28;20464;-63
2023/11/26 08:15:13;;;;;;;6.68;3.40;;;2.80;99.90;;;;;;4967423;28;20039;-63
2023/11/26 08:17:39;;;;;;;3.75;2.00;;;2.80;99.90;;;;;;4947897;28;20658;-62
2023/11/26 08:20:11;;;;;;;4.90;1.88;;;2.90;99.90;;;;;;4968428;28;20117;-62
2023/11/26 08:22:40;;;;;;;2.50;1.73;;;2.90;99.90;;;;;;4968382;28;20450;-62
2023/11/26 08:25:12;;;;;;;2.28;1.60;;;3.00;99.90;;;;;;4968297;28;20572;-62
2023/11/26 08:27:44;;;;;;;3.92;1.80;;;3.00;99.90;;;;;;4968176;28;20042;-62
2023/11/26 08:30:30;;;;;;;2.55;1.77;;;3.20;99.90;;;;;;4967983;28;20129;-62
2023/11/26 08:33:01;;;;;;;2.20;1.50;;;3.10;99.90;;;;;;4967772;28;20053;-62
2023/11/26 08:35:28;;;;;;;4.55;1.52;;;3.20;99.90;;;;;;4964890;28;20282;-62
2023/11/26 08:37:55;;;;;;;3.38;1.73;;;3.20;99.90;;;;;;4967829;28;20066;-63
2023/11/26 08:40:22;;;;;;;3.85;2.22;;;3.20;99.90;;;;;;4967845;28;20030;-63
2023/11/26 08:42:48;;;;;;;2.90;1.80;;;3.30;99.90;;;;;;4968021;28;20039;-63
2023/11/26 08:45:15;;;;;;;2.60;2.20;;;3.30;99.90;;;;;;4967947;28;20089;-63
2023/11/26 08:47:45;;;;;;;3.00;1.70;;;3.30;99.90;;;;;;4964427;28;20034;-63
2023/11/26 08:50:11;;;;;;;1.42;1.30;;;3.40;99.90;;;;;;4967744;28;20376;-63
2023/11/26 08:52:37;;;;;;;2.85;1.58;;;3.40;99.90;;;;;;4967841;28;20077;-63
2023/11/26 08:55:04;;;;;;;5.30;2.00;;;3.40;99.90;;;;;;4967680;28;20395;-63
2023/11/26 08:57:33;;;;;;;4.93;2.67;;;3.50;99.90;;;;;;4968183;28;20055;-63
2023/11/26 08:59:59;;;;;;;3.10;1.85;;;3.70;99.90;;;;;;4965967;28;20073;-63
2023/11/26 09:02:25;;;;;;;3.70;1.63;;;4.00;99.90;;;;;;4967986;28;20951;-62
2023/11/26 09:04:51;;;;;;;3.25;1.92;;;4.50;99.90;;;;;;4967808;28;20030;-63
2023/11/26 09:07:18;;;;;;;2.22;1.52;;;5.50;99.90;;;;;;4967380;28;20019;-63
2023/11/26 09:09:44;;;;;;;3.47;1.33;;;6.80;98.90;;;;;;4967673;28;20133;-63
2023/11/26 09:12:10;;;;;;;1.80;1.45;;;8.00;96.00;;;;;;4967082;28;20109;-63
2023/11/26 09:14:36;;;;;;;3.95;1.85;;;8.60;93.40;;;;;;4967598;28;20046;-63
2023/11/26 09:17:05;;;;;;;2.13;1.48;;;8.80;92.20;;;;;;4966365;28;20042;-63
2023/11/26 09:19:31;;;;;;;2.15;1.40;;;9.60;91.80;;;;;;4967362;28;20050;-62
2023/11/26 09:22:01;;;;;;;3.25;1.95;;;10.30;90.10;;;;;;4966676;28;20040;-63
2023/11/26 09:24:28;;;;;;;2.40;1.42;;;11.40;85.60;;;;;;4967251;28;20475;-63
2023/11/26 09:26:54;;;;;;;2.00;1.45;;;12.70;79.90;;;;;;4967149;28;20031;-63
2023/11/26 09:29:20;;;;;;;1.52;1.23;;;13.90;74.80;;;;;;4967325;28;20042;-64
2023/11/26 09:31:46;;;;;;;1.50;1.08;;;14.60;71.60;;;;;;4951521;28;20561;-63
2023/11/26 09:34:12;;;;;;;2.75;1.45;;;15.30;67.40;;;;;;4966723;28;20031;-62
2023/11/26 09:36:41;;;;;;;4.88;1.35;;;15.80;61.30;;;;;;4967053;28;20027;-62
2023/11/26 09:39:08;;;;;;;1.23;1.13;;;16.30;60.70;;;;;;4965821;28;20031;-62
2023/11/26 09:41:34;;;;;;;1.48;1.02;;;16.70;59.30;;;;;;4966905;28;20042;-62
2023/11/26 09:43:59;;;;;;;2.22;1.33;;;17.20;57.90;;;;;;4966845;28;20034;-62
2023/11/26 09:46:29;;;;;;;3.03;1.13;;;17.50;56.70;;;;;;4966246;28;20085;-62
2023/11/26 09:48:55;;;;;;;2.78;1.27;;;17.70;54.40;;;;;;4967023;28;20035;-62
2023/11/26 09:51:26;;;;;;;2.45;1.13;;;17.70;53.80;;;;;;4966281;28;20039;-63
2023/11/26 09:53:52;;;;;;;3.47;1.33;;;17.70;53.60;;;;;;4966662;28;20038;-62
2023/11/26 09:56:18;;;;;;;3.95;1.20;;;17.60;51.90;;;;;;4966441;28;20521;-62
2023/11/26 09:58:43;;;;;;;2.05;1.00;;;17.40;52.20;;;;;;4966595;28;20062;-63
2023/11/26 10:01:12;;;;;;;1.70;1.25;;;17.00;52.90;;;;;;4965471;28;20085;-63
2023/11/26 10:03:58;;;;;;;5.15;1.35;;;16.70;54.40;;;;;;4966947;28;20411;-63
2023/11/26 10:06:28;;;;;;;2.60;0.90;;;16.70;54.40;;;;;;4962724;28;20023;-63
2023/11/26 10:08:54;;;;;;;2.08;1.40;;;16.00;55.90;;;;;;4966106;28;20027;-62
2023/11/26 10:11:25;;;;;;;2.65;1.10;;;15.10;56.80;;;;;;4966694;28;20446;-63
2023/11/26 10:13:54;;;;;;;1.35;1.00;;;14.60;56.90;;;;;;4966132;28;20035;-62
2023/11/26 10:16:35;;;;;;;2.17;1.20;;;14.60;57.70;;;;;;4965689;28;20409;-63
2023/11/26 10:19:04;;;;;;;2.67;0.90;;;14.80;57.60;;;;;;4966183;28;20034;-63
2023/11/26 10:21:32;;;;;;;2.38;1.33;;;15.30;56.50;;;;;;4966095;28;20371;-63
2023/11/26 10:24:01;;;;;;;1.15;1.00;;;15.10;56.10;;;;;;4965816;28;20062;-64
2023/11/26 10:26:28;;;;;;;3.20;1.30;;;14.80;56.50;;;;;;4939034;28;20069;-63
2023/11/26 10:29:07;;;;;;;3.67;1.73;;;14.50;58.20;;;;;;4966002;28;20039;-64
2023/11/26 10:31:34;;;;;;;2.40;1.08;;;14.50;57.80;;;;;;4962273;28;20035;-64
2023/11/26 10:34:14;;;;;;;2.85;1.20;;;15.20;56.30;;;;;;4966091;28;20657;-63
2023/11/26 10:36:40;;;;;;;1.73;1.05;;;16.50;54.20;;;;;;4964443;28;20042;-64
2023/11/26 10:39:09;;;;;;;2.35;1.02;;;17.10;51.90;;;;;;4965859;28;20047;-63
2023/11/26 10:41:37;;;;;;;2.80;0.90;;;17.10;51.50;;;;;;4965822;28;20046;-63
2023/11/26 10:44:05;;;;;;;2.25;1.20;;;17.30;51.50;;;;;;4966076;28;20030;-63
2023/11/26 10:46:34;;;;;;;1.85;0.90;;;17.60;49.30;;;;;;4965664;28;20062;-63
2023/11/26 10:49:08;;;;;;;2.15;1.38;;;18.20;48.00;;;;;;4965976;28;20118;-65
2023/11/26 10:51:39;;;;;;;2.55;1.20;;;18.80;47.10;;;;;;4965701;28;20141;-63
2023/11/26 10:54:16;;;;;;;1.08;0.85;;;19.20;45.90;;;;;;4965512;28;20039;-63
2023/11/26 10:56:45;;;;;;;2.08;0.98;;;19.50;45.20;;;;;;4965917;28;20027;-63
2023/11/26 10:59:19;;;;;;;2.15;1.00;;;19.60;45.30;;;;;;4964750;28;20113;-63
2023/11/26 11:01:45;;;;;;;1.58;0.80;;;19.50;44.60;;;;;;4965134;28;20796;-63
2023/11/26 11:04:14;;;;;;;3.10;1.10;;;18.60;45.90;;;;;;4965395;28;20041;-63
2023/11/26 11:06:41;;;;;;;1.00;0.73;;;16.50;49.30;;;;;;4965329;28;20037;-63
2023/11/26 11:09:12;;;;;;;1.40;0.98;;;14.10;52.70;;;;;;4965586;28;20034;-69
2023/11/26 11:12:06;;;;;;;2.38;1.05;;;12.40;57.80;;;;;;4965621;28;20517;-64
2023/11/26 11:14:32;;;;;;;4.10;0.90;;;10.70;63.00;;;;;;4969453;28;20034;-62
2023/11/26 11:16:58;;;;;;;0.70;0.60;;;9.70;65.90;;;;;;4969296;28;20050;-62
2023/11/26 11:19:49;;;;;;;4.90;1.15;;;9.00;68.60;;;;;;4969962;28;20042;-70
2023/11/26 11:22:16;;;;;;;1.23;0.70;;;8.40;72.60;;;;;;5548516;23;20515;-66
2023/11/26 11:24:42;;;;;;;0.60;0.60;;;8.00;73.50;;;;;;4969167;28;20524;-66
2023/11/26 11:27:07;;;;;;;0.90;0.80;;;7.70;74.60;;;;;;4951601;28;20043;-66
2023/11/26 11:29:34;;;;;;;1.67;1.02;;;7.50;76.30;;;;;;4971052;28;20034;-66
2023/11/26 11:32:02;;;;;;;2.83;1.27;;;7.40;76.50;;;;;;4963391;28;20057;-66
2023/11/26 11:34:29;;;;;;;3.42;1.10;;;7.20;76.70;;;;;;4972701;28;20058;-66
2023/11/26 11:37:02;;;;;;;6.38;3.47;;;7.10;78.30;;;;;;4963024;28;20077;-66
2023/11/26 11:39:44;;;;;;;3.55;2.45;;;7.00;78.70;;;;;;4973536;28;20027;-66
2023/11/26 11:42:12;;;;;;;2.22;1.20;;;7.00;78.90;;;;;;4966696;28;20053;-65
2023/11/26 11:44:43;;;;;;;1.60;1.10;;;6.90;79.60;;;;;;4971289;28;20494;-66
2023/11/26 11:47:12;;;;;;;2.47;1.20;;;7.00;78.60;;;;;;4966134;28;20078;-66
2023/11/26 11:49:53;;;;;;;2.83;1.42;;;7.00;79.50;;;;;;4971233;28;20094;-66
2023/11/26 11:52:19;;;;;;;3.83;0.90;;;7.00;78.10;;;;;;4935604;28;20498;-66
2023/11/26 11:55:07;;;;;;;4.70;1.15;;;7.00;77.10;;;;;;4967992;28;20039;-66
2023/11/26 11:57:45;;;;;;;1.05;0.82;;;6.90;79.10;;;;;;4961084;28;20042;-66
2023/11/26 12:00:12;;;;;;;3.47;1.30;;;6.70;77.70;;;;;;4971838;28;20033;-66
2023/11/26 12:02:42;;;;;;;3.00;1.30;;;6.60;79.10;;;;;;4958890;28;20524;-66
2023/11/26 12:05:25;;;;;;;2.08;0.90;;;6.40;78.50;;;;;;4971072;28;20042;-66
2023/11/26 12:07:52;;;;;;;2.05;0.90;;;6.30;80.50;;;;;;4959919;28;20046;-66
2023/11/26 12:10:30;;;;;;;2.38;0.88;;;6.20;81.10;;;;;;4972111;28;20026;-66
2023/11/26 12:13:07;;;;;;;3.97;1.20;;;6.10;82.00;;;;;;4960516;28;20118;-66
2023/11/26 12:15:34;;;;;;;3.47;1.20;;;5.90;83.60;;;;;;4969519;28;20065;-66
2023/11/26 12:18:00;;;;;;;1.10;1.00;;;5.90;84.60;;;;;;4962283;28;20035;-66
2023/11/26 12:20:29;;;;;;;1.85;1.20;;;5.80;85.50;;;;;;4970614;28;20047;-65
2023/11/26 12:22:55;;;;;;;4.43;1.10;;;5.70;86.10;;;;;;4963184;28;20043;-66
2023/11/26 12:25:22;;;;;;;2.53;1.00;;;5.60;86.50;;;;;;4971433;28;20034;-66
2023/11/26 12:28:08;;;;;;;2.10;1.20;;;5.50;87.20;;;;;;4958864;28;20031;-66
2023/11/26 12:30:39;;;;;;;2.25;1.02;;;5.50;87.90;;;;;;4966470;28;20521;-66
2023/11/26 12:33:07;;;;;;;2.38;0.88;;;5.50;88.20;;;;;;4963042;28;20039;-66
2023/11/26 12:35:34;;;;;;;2.45;1.45;;;5.50;87.70;;;;;;4970131;28;20109;-66
2023/11/26 12:38:02;;;;;;;2.22;1.52;;;5.50;89.00;;;;;;4962511;28;20435;-66
2023/11/26 12:40:29;;;;;;;2.83;1.50;;;5.40;89.70;;;;;;4959401;28;20387;-66
2023/11/26 12:42:56;;;;;;;3.70;1.67;;;5.50;90.40;;;;;;4966660;28;20509;-66
2023/11/26 12:45:22;;;;;;;5.28;1.13;;;5.50;90.20;;;;;;4971957;28;20449;-67
2023/11/26 12:47:54;;;;;;;4.00;1.13;;;5.50;90.20;;;;;;4959979;28;20570;-66
2023/11/26 12:50:21;;;;;;;1.35;1.08;;;5.50;90.30;;;;;;4968093;28;20049;-67
2023/11/26 12:52:48;;;;;;;1.55;1.23;;;5.50;90.50;;;;;;4960704;28;20642;-66
2023/11/26 12:55:14;;;;;;;1.77;1.05;;;5.50;90.80;;;;;;4972932;28;20023;-66
2023/11/26 12:57:41;;;;;;;1.92;1.20;;;5.50;91.40;;;;;;4961656;28;20072;-66
2023/11/26 13:00:10;;;;;;;4.15;1.42;;;5.50;91.30;;;;;;4972626;28;20110;-66
2023/11/26 13:02:45;;;;;;;1.88;1.20;;;5.50;91.70;;;;;;4962178;28;20046;-66